Terminal Aerodrome Forecast
Issued by NWS Wilmington, OH

Current Version | Previous Version | Text Only | Print | Product List | Glossary Off
Versions: 1 2 3 4 5 6 7 8 9 10 11 12 13 14 15 16 17 18 19 20 21 22 23 24 25 26 27 28 29 30 31 32 33 34 35

465
FTUS41 KILN 011757
TAFCVG
TAF
KCVG 011757Z 0118/0224 26006KT P6SM VCSH SCT025 BKN035
      TEMPO 0118/0121 5SM -SHRA
     FM012200 24005KT P6SM SCT050 BKN080
     FM020100 21003KT P6SM VCSH BKN050
     FM021100 29004KT P6SM SCT025 BKN035
     FM021500 32005KT P6SM BKN025
     FM021900 34005KT P6SM VCSH BKN035=

USA.gov is the U.S. government's official web portal to all federal, state and local government web resources and services.